Time;durP1;ratioP1;P1;durP2;ratioP2;P2;SDS_P1;SDS_P2;PMS_P1;PMS_P2;Temp;Humidity;BMP_temperature;BMP_pressure;BME280_temperature;BME280_humidity;BME280_pressure;Samples;Min_cycle;Max_cycle;Signal;HPM_P1;HPM_P2
2022/01/02 00:00:22;;;;;;;6.32;4.25;;;;;;;9.85;100.00;101184.00;838445;23;1283;-85
2022/01/02 00:01:00;;;;;;;7.63;4.20;;;;;;;9.84;100.00;101185.75;837548;23;1385;-86
2022/01/02 00:01:21;;;;;;;9.02;4.53;;;;;;;9.80;100.00;101163.09;830562;23;4288;-85
2022/01/02 00:01:43;;;;;;;8.60;4.50;;;;;;;9.79;100.00;101186.56;835042;23;1897;-85
2022/01/02 00:02:09;;;;;;;7.55;4.25;;;;;;;9.75;100.00;101153.44;833849;23;1336;-85
2022/01/02 00:02:36;;;;;;;7.40;4.30;;;;;;;9.72;100.00;101162.16;834578;23;951;-85
2022/01/02 00:03:04;;;;;;;8.10;4.30;;;;;;;9.77;100.00;101152.59;828683;23;1301;-85
2022/01/02 00:03:25;;;;;;;7.82;4.40;;;;;;;9.97;100.00;101177.97;829715;23;1131;-85
2022/01/02 00:03:52;;;;;;;7.38;4.50;;;;;;;9.98;99.73;101153.59;825995;23;1147;-85
2022/01/02 00:04:20;;;;;;;6.88;4.28;;;;;;;9.99;99.81;101178.84;827073;23;4243;-85
2022/01/02 00:04:47;;;;;;;6.88;4.40;;;;;;;10.09;99.17;101151.03;828801;23;1186;-85
2022/01/02 00:05:15;;;;;;;6.53;4.28;;;;;;;10.19;98.96;101151.09;825307;24;1448;-85
2022/01/02 00:05:40;;;;;;;8.32;4.40;;;;;;;10.25;98.42;101170.31;830421;23;948;-85
2022/01/02 00:06:12;;;;;;;6.88;4.20;;;;;;;10.16;98.83;101137.13;832871;23;670;-85
2022/01/02 00:06:34;;;;;;;7.10;4.50;;;;;;;10.06;99.12;101131.00;833460;23;1011;-85
2022/01/02 00:07:01;;;;;;;7.38;4.70;;;;;;;10.07;99.45;101158.03;832253;23;971;-85
2022/01/02 00:07:24;;;;;;;7.20;4.47;;;;;;;10.09;99.57;101161.50;828381;23;4239;-85
2022/01/02 00:08:02;;;;;;;6.75;4.40;;;;;;;10.05;99.66;101131.84;825691;23;1244;-85
2022/01/02 00:08:24;;;;;;;7.30;4.60;;;;;;;9.96;100.00;101140.53;828214;23;848;-85
2022/01/02 00:08:49;;;;;;;6.68;4.53;;;;;;;9.91;100.00;101128.31;830860;23;1214;-85
2022/01/02 00:09:19;;;;;;;8.50;4.50;;;;;;;9.92;100.00;101136.16;833720;23;1281;-85
2022/01/02 00:09:44;;;;;;;6.78;4.32;;;;;;;9.95;100.00;101133.56;828738;23;1262;-85
2022/01/02 00:10:05;;;;;;;7.07;4.50;;;;;;;10.10;99.33;101124.06;829355;23;1299;-85
2022/01/02 00:10:30;;;;;;;7.55;4.75;;;;;;;10.09;99.12;101146.69;824286;23;4247;-84
2022/01/02 00:11:04;;;;;;;6.65;4.50;;;;;;;10.17;99.01;101160.66;833500;23;1302;-85
2022/01/02 00:11:25;;;;;;;7.10;4.30;;;;;;;10.15;98.44;101130.16;825000;23;1266;-84
2022/01/02 00:11:59;;;;;;;6.78;4.43;;;;;;;10.11;99.27;101157.16;833842;23;1337;-85
2022/01/02 00:12:36;;;;;;;7.00;4.45;;;;;;;10.09;99.13;101157.13;832858;23;995;-85
2022/01/02 00:12:59;;;;;;;6.90;4.28;;;;;;;10.09;98.89;101154.53;826766;23;1420;-85
2022/01/02 00:13:35;;;;;;;7.18;4.20;;;;;;;10.27;97.92;101140.66;827617;23;4203;-85
2022/01/02 00:14:08;;;;;;;7.03;4.40;;;;;;;10.24;98.36;101127.59;824764;24;1228;-84
2022/01/02 00:14:34;;;;;;;6.97;4.30;;;;;;;10.26;97.87;101138.06;824818;24;988;-84
2022/01/02 00:14:58;;;;;;;6.43;4.20;;;;;;;10.30;97.64;101130.25;825038;24;1424;-83
2022/01/02 00:15:20;;;;;;;6.90;4.25;;;;;;;10.25;97.99;101146.78;825131;23;1213;-84
2022/01/02 00:15:41;;;;;;;7.32;4.07;;;;;;;10.17;98.34;101144.97;829704;23;1225;-84
2022/01/02 00:16:08;;;;;;;7.47;4.20;;;;;;;10.19;98.32;101158.94;827037;24;942;-84
2022/01/02 00:16:29;;;;;;;7.50;4.22;;;;;;;10.19;98.23;101143.25;828069;23;4237;-84
2022/01/02 00:16:50;;;;;;;7.10;4.38;;;;;;;10.21;98.31;101172.88;829304;23;1276;-84
2022/01/02 00:17:12;;;;;;;6.53;4.10;;;;;;;10.14;98.64;101147.59;825062;23;1252;-84
2022/01/02 00:17:33;;;;;;;6.65;4.18;;;;;;;10.17;98.42;101116.25;824404;24;1358;-84
2022/01/02 00:18:04;;;;;;;6.60;4.40;;;;;;;10.26;97.99;101143.28;828136;23;1215;-84
2022/01/02 00:18:30;;;;;;;6.60;4.15;;;;;;;10.18;98.73;101115.38;824671;24;1230;-84
2022/01/02 00:19:06;;;;;;;6.38;4.20;;;;;;;10.29;97.82;101111.97;832756;23;1273;-84
2022/01/02 00:19:52;;;;;;;6.85;4.30;;;;;;;10.31;97.49;101108.44;827774;23;4394;-85
2022/01/02 00:20:43;;;;;;;;;;;;;;;;;;;;;
2022/01/02 00:21:15;;;;;;;6.93;4.35;;;;;;;10.41;96.90;101134.66;834053;23;872;-85
2022/01/02 00:21:42;;;;;;;6.10;4.13;;;;;;;10.34;96.95;101137.28;832490;23;1913;-85
2022/01/02 00:22:13;;;;;;;6.22;4.13;;;;;;;10.31;97.36;101104.97;832968;23;919;-85
2022/01/02 00:22:40;;;;;;;6.80;4.32;;;;;;;10.25;98.03;101133.72;829796;23;4661;-86
2022/01/02 00:23:06;;;;;;;6.13;4.22;;;;;;;10.19;97.93;101138.03;829938;23;1007;-85
2022/01/02 00:23:31;;;;;;;6.93;4.28;;;;;;;10.23;98.08;101147.63;829624;23;1337;-85
2022/01/02 00:24:00;;;;;;;7.15;4.40;;;;;;;10.21;98.06;101118.00;828674;23;1307;-85
2022/01/02 00:24:26;;;;;;;6.95;4.50;;;;;;;10.12;98.37;101132.78;831266;23;1229;-85
2022/01/02 00:24:47;;;;;;;6.93;4.28;;;;;;;10.12;98.48;101110.16;828688;23;1303;-86
2022/01/02 00:25:23;;;;;;;8.20;4.43;;;;;;;10.06;98.58;101141.44;834603;23;4275;-85
2022/01/02 00:25:46;;;;;;;7.13;4.40;;;;;;;9.97;99.11;101110.94;828208;23;1483;-85
2022/01/02 00:26:15;;;;;;;6.80;4.03;;;;;;;9.96;99.35;101119.63;825169;23;1213;-86
2022/01/02 00:26:46;;;;;;;6.60;4.47;;;;;;;10.00;98.81;101121.41;826035;24;990;-85
2022/01/02 00:27:13;;;;;;;7.40;4.40;;;;;;;10.01;98.85;101146.66;825201;24;1280;-85
2022/01/02 00:27:37;;;;;;;7.18;4.40;;;;;;;9.99;99.13;101131.84;824320;24;1411;-85
2022/01/02 00:27:59;;;;;;;6.85;4.28;;;;;;;9.92;99.16;101128.31;824736;23;1408;-85
2022/01/02 00:28:30;;;;;;;6.90;4.40;;;;;;;9.86;99.92;101131.78;819583;24;4262;-85
2022/01/02 00:28:54;;;;;;;6.85;4.35;;;;;;;9.93;99.76;101153.59;826250;24;1026;-84
2022/01/02 00:29:25;;;;;;;6.90;4.38;;;;;;;9.95;99.54;101111.81;831040;23;1412;-85
2022/01/02 00:29:46;;;;;;;6.25;4.20;;;;;;;10.05;98.75;101113.56;829275;23;1280;-85
2022/01/02 00:30:15;;;;;;;6.22;4.35;;;;;;;10.04;98.94;101131.00;829401;23;813;-84
2022/01/02 00:30:43;;;;;;;6.55;4.00;;;;;;;10.00;99.31;101105.72;832283;23;1261;-85
2022/01/02 00:31:04;;;;;;;7.80;4.20;;;;;;;9.97;99.49;101144.00;827527;23;1238;-84
2022/01/02 00:31:31;;;;;;;6.72;4.20;;;;;;;9.92;99.65;101112.66;828188;23;4732;-85
2022/01/02 00:31:55;;;;;;;6.50;4.40;;;;;;;9.91;99.57;101128.31;823709;24;1178;-85
2022/01/02 00:32:17;;;;;;;6.60;4.45;;;;;;;9.87;99.98;101112.63;820237;24;1225;-84
2022/01/02 00:32:38;;;;;;;7.03;4.40;;;;;;;9.86;99.88;101139.59;819048;23;1470;-84
2022/01/02 00:33:01;;;;;;;6.10;4.20;;;;;;;10.00;99.19;101152.75;819834;24;1323;-84
2022/01/02 00:33:29;;;;;;;6.63;4.40;;;;;;;10.00;99.34;101112.69;823150;24;1165;-85
2022/01/02 00:33:50;;;;;;;7.05;4.20;;;;;;;9.95;99.49;101117.03;823979;24;1365;-85
2022/01/02 00:34:11;;;;;;;7.80;4.47;;;;;;;9.92;99.67;101144.00;827712;23;4251;-85
2022/01/02 00:34:43;;;;;;;6.43;4.32;;;;;;;9.93;99.53;101150.06;828888;23;1385;-85
2022/01/02 00:35:07;;;;;;;6.55;4.25;;;;;;;10.07;98.90;101152.78;826020;24;1495;-85
2022/01/02 00:35:28;;;;;;;7.10;4.38;;;;;;;10.01;99.09;101143.16;824499;23;1377;-84
2022/01/02 00:35:49;;;;;;;7.00;4.22;;;;;;;9.97;99.33;101125.72;822067;24;1137;-85
2022/01/02 00:36:12;;;;;;;7.38;4.28;;;;;;;9.93;99.53;101147.47;824052;23;1198;-85
2022/01/02 00:36:34;;;;;;;8.30;4.45;;;;;;;9.88;99.93;101163.13;828057;23;1075;-85
2022/01/02 00:36:57;;;;;;;8.10;4.50;;;;;;;9.97;99.56;101131.84;825905;23;951;-84
2022/01/02 00:37:19;;;;;;;7.55;4.28;;;;;;;9.96;99.71;101137.06;820922;23;4990;-85
2022/01/02 00:37:40;;;;;;;6.93;4.28;;;;;;;9.96;99.53;101144.91;820735;24;1234;-85
2022/01/02 00:38:05;;;;;;;7.38;4.50;;;;;;;9.98;99.21;101135.31;824392;24;1140;-85
2022/01/02 00:38:28;;;;;;;7.00;4.43;;;;;;;9.93;99.51;101144.84;827817;23;1127;-85
2022/01/02 00:38:50;;;;;;;6.38;4.30;;;;;;;9.91;99.61;101133.53;827892;23;864;-85
2022/01/02 00:39:13;;;;;;;6.30;4.32;;;;;;;9.86;99.96;101165.72;823497;24;1163;-85
2022/01/02 00:39:39;;;;;;;6.45;4.22;;;;;;;9.81;100.00;101177.00;824852;24;914;-85
2022/01/02 00:40:03;;;;;;;7.13;4.40;;;;;;;9.82;100.00;101147.44;829165;23;1226;-85
2022/01/02 00:40:24;;;;;;;6.88;4.45;;;;;;;9.80;100.00;101139.59;826933;23;4318;-85
2022/01/02 00:40:46;;;;;;;7.00;4.63;;;;;;;9.76;100.00;101163.03;827700;23;1345;-85
2022/01/02 00:41:11;;;;;;;7.18;4.65;;;;;;;9.75;100.00;101138.69;828516;23;1147;-85
2022/01/02 00:41:45;;;;;;;6.75;4.40;;;;;;;9.71;100.00;101152.56;828357;23;1284;-86
2022/01/02 00:42:12;;;;;;;7.22;4.70;;;;;;;9.77;100.00;101150.00;824199;23;1405;-85
2022/01/02 00:42:53;;;;;;;6.05;4.30;;;;;;;9.76;100.00;101145.66;827817;23;1356;-85
2022/01/02 00:43:22;;;;;;;6.90;4.22;;;;;;;9.79;100.00;101163.94;810448;23;4245;-85
2022/01/02 00:43:57;;;;;;;;;;;;;;;;;;;;;
2022/01/02 00:44:56;;;;;;;6.60;4.40;;;;;;;9.85;100.00;101150.91;829366;23;1317;-85
2022/01/02 00:45:24;;;;;;;6.55;4.30;;;;;;;9.81;100.00;101148.28;833578;23;829;-86
2022/01/02 00:45:51;;;;;;;7.55;4.45;;;;;;;9.77;100.00;101146.50;827885;23;1206;-86
2022/01/02 00:46:25;;;;;;;7.18;4.50;;;;;;;9.76;100.00;101166.53;825580;23;4235;-86
2022/01/02 00:46:53;;;;;;;6.47;4.47;;;;;;;9.74;100.00;101149.13;823636;24;1416;-85
2022/01/02 00:47:45;;;;;;;6.57;4.18;;;;;;;9.72;100.00;101159.56;824497;24;1455;-85
2022/01/02 00:48:24;;;;;;;6.80;4.30;;;;;;;9.72;100.00;101172.59;824309;23;1285;-86
2022/01/02 00:48:47;;;;;;;7.65;4.65;;;;;;;9.69;100.00;101146.44;827572;23;857;-86
2022/01/02 00:49:12;;;;;;;7.22;4.50;;;;;;;9.66;100.00;101165.59;827640;23;4324;-86
2022/01/02 00:49:40;;;;;;;7.05;4.57;;;;;;;9.70;100.00;101143.00;823577;24;1242;-85
2022/01/02 00:50:22;;;;;;;7.03;4.88;;;;;;;9.86;100.00;101138.75;828134;23;1129;-86
2022/01/02 00:51:01;;;;;;;5.97;4.13;;;;;;;9.92;99.80;101156.19;827739;23;1277;-85
2022/01/02 00:51:43;;;;;;;6.78;4.47;;;;;;;9.85;99.88;101153.53;820097;23;1357;-85
2022/01/02 00:52:18;;;;;;;7.10;4.72;;;;;;;9.83;100.00;101139.59;819997;24;868;-85
2022/01/02 00:52:50;;;;;;;8.27;4.40;;;;;;;9.77;100.00;101170.88;815147;24;4716;-85
2022/01/02 00:53:19;;;;;;;7.07;4.32;;;;;;;9.73;100.00;101166.50;821282;24;1398;-85
2022/01/02 00:53:43;;;;;;;7.15;4.53;;;;;;;9.74;100.00;101176.09;820119;24;1330;-86
2022/01/02 00:54:08;;;;;;;7.55;4.50;;;;;;;9.92;99.86;101145.75;820301;24;1362;-86
2022/01/02 00:54:39;;;;;;;7.18;4.50;;;;;;;10.07;98.64;101179.78;820548;24;1317;-86
2022/01/02 00:55:11;;;;;;;;;;;;;;;;;;;;;
2022/01/02 00:55:35;;;;;;;8.70;4.50;;;;;;;10.09;98.49;101140.59;804914;24;4813;-86
2022/01/02 00:56:00;;;;;;;8.13;4.38;;;;;;;10.04;98.67;101164.09;826169;23;1238;-85
2022/01/02 00:56:27;;;;;;;7.25;4.65;;;;;;;10.02;98.58;101166.72;832547;23;1435;-85
2022/01/02 00:57:05;;;;;;;6.82;4.57;;;;;;;9.96;99.19;101144.91;833621;23;797;-86
2022/01/02 00:57:38;;;;;;;6.50;4.40;;;;;;;9.88;99.66;101140.50;828378;23;1267;-85
2022/01/02 00:58:06;;;;;;;7.95;4.53;;;;;;;9.86;99.70;101141.34;828364;23;1233;-85
2022/01/02 00:58:53;;;;;;;7.60;4.40;;;;;;;9.81;99.68;101145.66;830837;23;4261;-86
2022/01/02 00:59:44;;;;;;;6.20;4.07;;;;;;;9.80;100.00;101167.41;823977;23;1517;-85
2022/01/02 01:00:10;;;;;;;8.13;4.20;;;;;;;9.76;100.00;101169.16;831979;23;1373;-86
2022/01/02 01:00:50;;;;;;;6.72;4.43;;;;;;;9.71;100.00;101145.59;831217;23;1197;-86
2022/01/02 01:01:25;;;;;;;7.07;4.63;;;;;;;9.67;100.00;101200.41;836412;23;4215;-85
2022/01/02 01:02:00;;;;;;;7.07;4.28;;;;;;;9.66;100.00;101167.31;831554;23;1887;-85
2022/01/02 01:02:33;;;;;;;7.07;4.35;;;;;;;9.74;100.00;101149.97;834256;23;1306;-86
2022/01/02 01:03:03;;;;;;;7.25;4.38;;;;;;;9.72;100.00;101180.44;827801;23;1247;-85
2022/01/02 01:03:33;;;;;;;6.55;4.10;;;;;;;9.70;100.00;101188.22;820844;24;881;-85
2022/01/02 01:03:55;;;;;;;6.53;4.38;;;;;;;9.70;100.00;101164.72;827721;23;1274;-85
2022/01/02 01:04:21;;;;;;;6.60;4.22;;;;;;;9.70;100.00;101182.16;824148;23;4209;-85
2022/01/02 01:04:43;;;;;;;7.45;4.50;;;;;;;9.69;100.00;101144.75;831543;23;1378;-85
2022/01/02 01:05:20;;;;;;;6.40;4.35;;;;;;;9.69;100.00;101172.56;827914;23;1312;-85
2022/01/02 01:05:50;;;;;;;8.18;4.28;;;;;;;9.74;100.00;101144.75;824171;24;868;-85
2022/01/02 01:06:18;;;;;;;7.72;4.60;;;;;;;9.74;99.90;101144.75;824284;23;1254;-86
2022/01/02 01:06:47;;;;;;;6.38;4.40;;;;;;;9.71;100.00;101168.25;823960;23;1428;-86
2022/01/02 01:07:15;;;;;;;7.03;4.53;;;;;;;9.71;100.00;101139.53;831922;23;1340;-85
2022/01/02 01:07:44;;;;;;;7.22;4.55;;;;;;;9.70;100.00;101171.69;828727;23;4646;-86
2022/01/02 01:08:09;;;;;;;7.70;4.65;;;;;;;9.67;100.00;101154.28;833561;23;852;-86
2022/01/02 01:08:32;;;;;;;7.25;4.80;;;;;;;9.69;100.00;101151.69;826049;23;860;-86
2022/01/02 01:08:58;;;;;;;6.72;4.47;;;;;;;9.68;100.00;101155.19;824392;23;1296;-86
2022/01/02 01:09:26;;;;;;;6.53;4.32;;;;;;;9.73;100.00;101137.78;821115;23;1335;-85
2022/01/02 01:09:49;;;;;;;7.40;4.68;;;;;;;9.69;100.00;101168.22;824233;23;900;-85
2022/01/02 01:10:12;;;;;;;7.28;4.57;;;;;;;9.65;100.00;101158.63;815556;23;4283;-85
2022/01/02 01:10:44;;;;;;;6.47;4.63;;;;;;;9.65;100.00;101157.75;825170;24;849;-86
2022/01/02 01:11:08;;;;;;;5.97;4.35;;;;;;;9.62;100.00;101142.06;820425;24;1394;-85
2022/01/02 01:11:29;;;;;;;7.05;4.45;;;;;;;9.63;100.00;101173.41;819602;24;1347;-85
2022/01/02 01:11:50;;;;;;;6.50;4.53;;;;;;;9.61;100.00;101148.13;821426;24;869;-86
2022/01/02 01:12:10;;;;;;;7.35;4.80;;;;;;;9.60;100.00;101160.31;819742;24;1480;-85
2022/01/02 01:12:32;;;;;;;7.07;4.85;;;;;;;9.59;100.00;101161.19;819179;24;1230;-85
2022/01/02 01:12:59;;;;;;;6.57;4.60;;;;;;;9.59;100.00;101155.09;827139;23;1341;-86
2022/01/02 01:13:26;;;;;;;6.40;4.68;;;;;;;9.60;100.00;101165.53;822255;23;4399;-85
2022/01/02 01:13:50;;;;;;;6.57;4.50;;;;;;;9.64;100.00;101150.78;817381;24;1620;-86
2022/01/02 01:14:11;;;;;;;6.32;4.55;;;;;;;9.65;100.00;101135.13;824308;24;1417;-85
2022/01/02 01:14:32;;;;;;;6.70;4.47;;;;;;;9.65;100.00;101145.59;823825;23;1324;-86
2022/01/02 01:14:56;;;;;;;7.50;4.40;;;;;;;9.62;100.00;101134.22;828047;23;1289;-86
2022/01/02 01:15:19;;;;;;;8.00;4.90;;;;;;;9.62;100.00;101161.22;831935;23;1234;-85
2022/01/02 01:15:43;;;;;;;7.05;4.35;;;;;;;9.59;100.00;101162.94;831122;23;1257;-85
2022/01/02 01:16:07;;;;;;;6.05;4.50;;;;;;;9.60;100.00;101141.19;833021;23;988;-85
2022/01/02 01:16:28;;;;;;;6.30;4.57;;;;;;;9.59;100.00;101145.53;823229;23;4218;-85
2022/01/02 01:16:49;;;;;;;6.97;4.70;;;;;;;9.59;100.00;101147.28;820351;24;1192;-86
2022/01/02 01:17:15;;;;;;;7.93;4.70;;;;;;;9.63;100.00;101159.47;828098;23;1440;-85
2022/01/02 01:17:38;;;;;;;7.95;4.82;;;;;;;9.68;100.00;101156.03;828309;23;1360;-86
2022/01/02 01:18:03;;;;;;;7.07;4.50;;;;;;;9.73;100.00;101176.94;824002;24;1248;-85
2022/01/02 01:18:27;;;;;;;7.35;4.90;;;;;;;9.70;99.88;101137.75;835569;23;1201;-85
2022/01/02 01:18:53;;;;;;;6.43;4.47;;;;;;;9.71;100.00;101173.47;832254;23;1150;-85
2022/01/02 01:19:23;;;;;;;6.45;4.20;;;;;;;9.68;100.00;101140.38;810710;23;4328;-86
2022/01/02 01:19:49;;;;;;;7.32;4.75;;;;;;;9.68;100.00;101176.06;828328;23;1288;-86
2022/01/02 01:20:14;;;;;;;6.68;4.40;;;;;;;9.67;100.00;101163.84;824128;24;1334;-84
2022/01/02 01:20:41;;;;;;;6.32;4.53;;;;;;;9.76;100.00;101145.66;827111;23;1439;-84
2022/01/02 01:21:04;;;;;;;6.78;4.75;;;;;;;9.80;99.59;101144.81;830317;23;1404;-85
2022/01/02 01:21:26;;;;;;;8.35;4.57;;;;;;;9.83;99.81;101177.88;835179;23;1253;-85
2022/01/02 01:21:47;;;;;;;8.38;4.50;;;;;;;9.78;99.85;101141.31;826718;23;1874;-84
2022/01/02 01:22:08;;;;;;;7.70;4.60;;;;;;;9.76;99.89;101148.25;832572;23;852;-85
2022/01/02 01:22:29;;;;;;;6.47;4.65;;;;;;;9.74;99.84;101170.88;819626;23;4247;-84
2022/01/02 01:22:53;;;;;;;6.97;4.50;;;;;;;9.73;100.00;101148.22;820579;23;1286;-84
2022/01/02 01:23:17;;;;;;;6.55;4.55;;;;;;;9.73;100.00;101152.59;824059;23;1386;-84
2022/01/02 01:23:40;;;;;;;6.40;4.40;;;;;;;9.68;100.00;101176.06;823531;23;1221;-85
2022/01/02 01:24:01;;;;;;;7.38;4.65;;;;;;;9.65;100.00;101156.03;823935;23;1308;-84
2022/01/02 01:24:25;;;;;;;7.03;4.32;;;;;;;9.64;100.00;101148.19;824039;24;1199;-84
2022/01/02 01:24:49;;;;;;;6.88;4.40;;;;;;;9.65;100.00;101176.00;830749;23;1088;-84
2022/01/02 01:25:16;;;;;;;6.20;4.40;;;;;;;9.62;100.00;101150.78;830937;23;4195;-84
2022/01/02 01:25:46;;;;;;;7.00;4.47;;;;;;;9.65;100.00;101149.91;824626;24;1313;-85
2022/01/02 01:26:09;;;;;;;6.70;4.40;;;;;;;9.63;100.00;101162.94;823580;24;1337;-84
2022/01/02 01:26:31;;;;;;;6.75;4.60;;;;;;;9.65;100.00;101181.22;820288;24;1361;-84
2022/01/02 01:26:59;;;;;;;6.87;4.60;;;;;;;9.71;100.00;101155.19;821340;24;1304;-85
2022/01/02 01:27:21;;;;;;;6.47;4.43;;;;;;;9.72;100.00;101170.00;819711;24;1551;-83
2022/01/02 01:27:46;;;;;;;6.97;4.70;;;;;;;9.79;100.00;101147.38;820694;24;1158;-84
2022/01/02 01:28:10;;;;;;;7.25;4.25;;;;;;;9.96;99.06;101144.91;823201;23;1340;-85
2022/01/02 01:28:38;;;;;;;7.00;4.57;;;;;;;9.96;98.71;101177.09;826313;23;6328;-86
2022/01/02 01:29:01;;;;;;;7.68;4.65;;;;;;;9.95;99.16;101164.03;831684;23;1338;-85
2022/01/02 01:29:34;;;;;;;7.45;4.50;;;;;;;9.98;98.58;101138.81;832013;23;860;-84
2022/01/02 01:30:01;;;;;;;6.45;4.43;;;;;;;9.95;98.95;101138.78;827240;23;1394;-84
2022/01/02 01:30:27;;;;;;;6.90;4.40;;;;;;;9.87;99.42;101157.03;823558;24;1411;-85
2022/01/02 01:30:51;;;;;;;6.22;4.40;;;;;;;10.01;98.75;101170.16;823458;24;1315;-84
2022/01/02 01:31:12;;;;;;;7.18;4.55;;;;;;;10.16;97.69;101168.50;822062;24;5117;-85
2022/01/02 01:31:33;;;;;;;7.35;4.38;;;;;;;10.18;97.22;101151.97;823674;24;1313;-84
2022/01/02 01:32:00;;;;;;;6.80;4.30;;;;;;;10.16;97.69;101168.50;823151;23;1300;-85
2022/01/02 01:32:24;;;;;;;8.55;4.70;;;;;;;10.17;97.48;101171.09;827255;23;1241;-85
2022/01/02 01:32:45;;;;;;;7.93;4.68;;;;;;;10.08;98.21;101147.56;827572;23;1317;-84
2022/01/02 01:33:23;;;;;;;6.93;4.40;;;;;;;10.12;97.84;101149.34;823549;24;1266;-84
2022/01/02 01:33:44;;;;;;;6.23;4.50;;;;;;;10.08;98.12;101181.53;823588;24;1164;-84
2022/01/02 01:34:05;;;;;;;7.10;4.50;;;;;;;10.06;98.25;101172.78;824963;23;1165;-85
2022/01/02 01:34:26;;;;;;;7.60;4.50;;;;;;;10.00;98.40;101162.34;827167;23;4244;-84
2022/01/02 01:34:46;;;;;;;5.57;3.92;;;;;;;9.98;98.65;101143.16;823764;23;1275;-84
2022/01/02 01:35:11;;;;;;;6.47;4.38;;;;;;;9.94;98.82;101144.88;825222;23;1035;-84
2022/01/02 01:35:35;;;;;;;7.90;4.60;;;;;;;9.86;98.83;101170.94;823467;24;1351;-84
2022/01/02 01:36:03;;;;;;;7.88;4.57;;;;;;;9.82;99.31;101158.72;824048;24;1189;-85
2022/01/02 01:36:27;;;;;;;6.82;4.30;;;;;;;9.80;99.46;101167.41;819162;24;1358;-84
2022/01/02 01:36:47;;;;;;;6.82;4.30;;;;;;;9.80;99.61;101178.75;821748;24;777;-85
2022/01/02 01:37:08;;;;;;;6.30;4.43;;;;;;;9.76;99.54;101171.75;820518;24;1187;-84
2022/01/02 01:37:32;;;;;;;6.65;4.53;;;;;;;9.72;99.75;101170.00;818645;24;4784;-85
2022/01/02 01:37:55;;;;;;;7.00;4.40;;;;;;;9.74;99.86;101156.94;819553;24;1472;-84
2022/01/02 01:38:16;;;;;;;6.20;4.25;;;;;;;9.71;100.00;101184.75;823601;23;1182;-85
2022/01/02 01:38:37;;;;;;;6.03;4.20;;;;;;;9.69;100.00;101173.44;827374;23;1324;-84
2022/01/02 01:38:57;;;;;;;6.72;4.50;;;;;;;9.67;100.00;101179.53;827236;23;1233;-84
2022/01/02 01:39:21;;;;;;;6.57;4.50;;;;;;;9.67;100.00;101154.28;828467;23;1028;-84
2022/01/02 01:39:45;;;;;;;7.18;4.45;;;;;;;9.65;100.00;101170.78;824046;24;1007;-84
2022/01/02 01:40:09;;;;;;;7.15;4.28;;;;;;;9.71;100.00;101155.19;823157;24;1528;-84
2022/01/02 01:40:40;;;;;;;7.15;4.63;;;;;;;9.81;99.26;101161.34;822807;23;4902;-84
2022/01/02 01:41:05;;;;;;;6.80;4.30;;;;;;;9.85;99.04;101169.19;823518;23;1269;-85
2022/01/02 01:41:36;;;;;;;7.30;4.43;;;;;;;9.83;99.43;101150.03;826894;23;1287;-84
2022/01/02 01:42:06;;;;;;;6.68;4.47;;;;;;;9.89;98.93;101134.41;831141;23;1960;-85
2022/01/02 01:42:36;;;;;;;6.75;4.47;;;;;;;9.95;98.48;101159.66;823153;23;1366;-85
2022/01/02 01:42:59;;;;;;;7.57;4.55;;;;;;;9.91;98.80;101162.25;831862;23;1257;-85
2022/01/02 01:43:51;;;;;;;6.32;4.45;;;;;;;9.85;98.96;101158.75;830420;23;4246;-84
2022/01/02 01:45:04;;;;;;;7.18;4.65;;;;;;;9.99;98.75;101139.69;827186;23;1356;-83
2022/01/02 01:45:47;;;;;;;6.85;4.50;;;;;;;10.02;97.97;101158.88;830695;23;1241;-84
2022/01/02 01:46:07;;;;;;;6.03;4.40;;;;;;;9.97;98.05;101151.84;823016;23;1553;-84
2022/01/02 01:46:31;;;;;;;7.05;4.60;;;;;;;9.96;98.39;101157.94;826596;23;4208;-85
2022/01/02 01:46:55;;;;;;;8.50;4.78;;;;;;;9.95;98.55;101120.50;822695;24;1432;-84
2022/01/02 01:47:16;;;;;;;7.80;4.85;;;;;;;9.98;98.93;101143.16;824316;23;1281;-85
2022/01/02 01:47:36;;;;;;;6.82;4.45;;;;;;;10.17;97.04;101152.81;823767;24;1245;-83
2022/01/02 01:48:07;;;;;;;6.20;4.70;;;;;;;10.26;96.39;101148.50;823040;24;1204;-85
2022/01/02 01:48:30;;;;;;;7.40;4.75;;;;;;;10.21;96.73;101128.44;823218;24;1416;-85
2022/01/02 01:48:55;;;;;;;7.70;4.78;;;;;;;10.22;96.92;101131.97;824250;24;1294;-85
2022/01/02 01:49:19;;;;;;;6.97;4.40;;;;;;;10.13;97.51;101156.28;822281;23;4258;-85
2022/01/02 01:49:43;;;;;;;7.47;4.68;;;;;;;10.09;97.81;101131.00;827165;23;1222;-85
2022/01/02 01:50:07;;;;;;;6.60;4.40;;;;;;;10.04;98.16;101169.31;827287;23;1413;-85
2022/01/02 01:50:33;;;;;;;8.23;4.60;;;;;;;9.98;98.25;101143.16;827116;23;1217;-85
2022/01/02 01:51:03;;;;;;;7.28;4.80;;;;;;;9.99;98.40;101160.56;831349;23;1261;-85
2022/01/02 01:51:27;;;;;;;6.97;4.28;;;;;;;9.97;98.55;101170.13;826942;23;931;-84
2022/01/02 01:51:50;;;;;;;7.22;4.47;;;;;;;9.93;98.68;101137.91;816003;24;1335;-84
2022/01/02 01:52:13;;;;;;;7.38;4.90;;;;;;;9.89;98.90;101136.16;826219;23;4234;-85
2022/01/02 01:52:37;;;;;;;6.40;4.53;;;;;;;9.86;99.08;101176.16;823843;24;1285;-85
2022/01/02 01:52:58;;;;;;;6.80;4.63;;;;;;;9.84;99.11;101145.69;827061;23;947;-86
2022/01/02 01:53:19;;;;;;;7.32;4.63;;;;;;;9.81;99.19;101151.75;819561;24;1225;-85
2022/01/02 01:53:39;;;;;;;7.97;4.80;;;;;;;9.80;99.42;101143.91;822428;24;1242;-85
2022/01/02 01:54:00;;;;;;;7.82;4.57;;;;;;;9.77;98.77;101142.16;824961;23;892;-85
2022/01/02 01:54:25;;;;;;;8.07;4.70;;;;;;;9.74;99.16;101143.91;816158;24;1219;-85
2022/01/02 01:54:45;;;;;;;6.93;4.55;;;;;;;9.73;99.39;101174.31;817176;24;830;-85
2022/01/02 01:55:06;;;;;;;7.50;4.60;;;;;;;9.73;99.29;101137.78;822889;24;1145;-85
2022/01/02 01:55:33;;;;;;;8.02;4.60;;;;;;;9.74;99.49;101152.59;817832;24;4245;-85
2022/01/02 01:55:57;;;;;;;6.78;4.20;;;;;;;10.02;97.82;101151.03;818817;24;1332;-84
2022/01/02 01:56:18;;;;;;;6.93;4.32;;;;;;;10.01;97.62;101132.72;815429;24;1281;-85
2022/01/02 01:56:42;;;;;;;6.85;4.55;;;;;;;10.03;97.85;101151.91;824286;24;1224;-85
2022/01/02 01:57:13;;;;;;;6.63;4.22;;;;;;;9.99;97.93;101168.41;819449;24;1380;-85
2022/01/02 01:57:35;;;;;;;7.63;4.40;;;;;;;10.05;97.77;101139.69;816129;24;1447;-85
2022/01/02 01:57:59;;;;;;;6.38;4.38;;;;;;;10.00;97.97;101131.84;823278;23;1029;-85
2022/01/02 01:58:27;;;;;;;6.72;4.40;;;;;;;10.04;98.03;101130.13;821074;23;4249;-84
2022/01/02 01:58:48;;;;;;;7.05;4.38;;;;;;;10.14;97.16;101129.31;816104;24;1441;-85
2022/01/02 01:59:08;;;;;;;6.78;4.50;;;;;;;10.11;97.16;101128.44;820074;24;1520;-85
2022/01/02 01:59:31;;;;;;;7.03;4.40;;;;;;;10.22;96.57;101131.97;820599;24;1325;-85
2022/01/02 01:59:55;;;;;;;6.80;4.50;;;;;;;10.16;97.26;101143.25;827949;23;1211;-84
2022/01/02 02:00:22;;;;;;;6.28;4.40;;;;;;;10.12;97.51;101162.41;828521;23;1290;-84
2022/01/02 02:00:51;;;;;;;6.97;4.32;;;;;;;10.03;97.73;101154.50;828379;23;1268;-85
2022/01/02 02:01:24;;;;;;;6.68;4.50;;;;;;;9.97;98.14;101136.16;821869;24;4276;-84
2022/01/02 02:01:51;;;;;;;7.20;4.55;;;;;;;10.02;98.06;101119.69;823097;24;1925;-85
2022/01/02 02:02:13;;;;;;;7.18;4.47;;;;;;;10.05;97.76;101111.84;819869;24;1198;-85
2022/01/02 02:02:37;;;;;;;7.18;4.35;;;;;;;10.07;97.13;101117.09;822777;24;1206;-85
2022/01/02 02:03:04;;;;;;;7.32;4.45;;;;;;;10.04;97.36;101123.16;831093;23;1745;-84
2022/01/02 02:03:43;;;;;;;6.68;4.78;;;;;;;9.95;98.19;101132.69;832869;23;994;-85
2022/01/02 02:04:05;;;;;;;7.88;4.60;;;;;;;9.95;97.77;101133.56;831322;23;1410;-85
2022/01/02 02:04:29;;;;;;;6.95;4.45;;;;;;;9.95;97.78;101115.28;828655;23;4200;-85
2022/01/02 02:04:50;;;;;;;7.25;4.47;;;;;;;9.98;97.42;101128.38;827267;23;1347;-84
2022/01/02 02:05:16;;;;;;;6.88;4.60;;;;;;;10.01;97.73;101127.50;819794;24;1580;-84
2022/01/02 02:05:45;;;;;;;7.65;4.70;;;;;;;10.00;97.78;101131.00;819279;24;1288;-84
2022/01/02 02:06:06;;;;;;;6.80;4.60;;;;;;;9.95;98.14;101138.78;820170;24;1360;-85
2022/01/02 02:06:29;;;;;;;7.15;4.72;;;;;;;9.94;98.71;101137.06;824976;24;945;-85
2022/01/02 02:06:59;;;;;;;6.88;4.38;;;;;;;9.91;98.94;101133.53;823584;24;1412;-86
2022/01/02 02:07:27;;;;;;;6.13;4.30;;;;;;;9.93;98.53;101121.34;825239;23;4221;-84
2022/01/02 02:07:48;;;;;;;6.82;4.80;;;;;;;9.95;98.14;101112.66;822057;24;1340;-85
2022/01/02 02:08:13;;;;;;;6.45;4.32;;;;;;;9.94;97.88;101099.59;818989;24;1331;-85
2022/01/02 02:08:37;;;;;;;6.68;4.70;;;;;;;9.93;98.31;101126.56;815633;24;1261;-84